Time;durP1;ratioP1;P1;durP2;ratioP2;P2;SDS_P1;SDS_P2;PMS_P1;PMS_P2;Temp;Humidity;BMP_temperature;BMP_pressure;BME280_temperature;BME280_humidity;BME280_pressure;Samples;Min_cycle;Max_cycle;Signal;HPM_P1;HPM_P2
2023/01/07 00:01:14;;;;;;;15.48;8.98;;;10.20;97.00;;;;;;5020029;28;20117;-74
2023/01/07 00:03:40;;;;;;;12.93;8.60;;;10.20;97.20;;;;;;5025678;28;20026;-74
2023/01/07 00:06:15;;;;;;;16.90;8.68;;;10.10;97.40;;;;;;5022446;28;20036;-72
2023/01/07 00:08:43;;;;;;;16.20;9.32;;;10.00;98.00;;;;;;5021140;28;20049;-73
2023/01/07 00:11:18;;;;;;;13.73;8.70;;;9.90;97.90;;;;;;5024561;28;20055;-74
2023/01/07 00:13:44;;;;;;;14.20;8.88;;;9.90;98.00;;;;;;5021575;28;20041;-75
2023/01/07 00:16:13;;;;;;;14.88;9.85;;;9.80;97.90;;;;;;5020311;28;20013;-74
2023/01/07 00:18:39;;;;;;;19.08;9.35;;;9.70;98.00;;;;;;5021181;28;20049;-74
2023/01/07 00:21:07;;;;;;;15.63;9.80;;;9.40;98.70;;;;;;5022724;28;20420;-74
2023/01/07 00:23:34;;;;;;;17.05;10.07;;;9.50;98.60;;;;;;5026296;28;20034;-72
2023/01/07 00:26:05;;;;;;;13.82;9.65;;;9.40;99.20;;;;;;5023330;28;20017;-74
2023/01/07 00:28:35;;;;;;;14.43;8.90;;;9.00;99.70;;;;;;5020590;28;20088;-74
2023/01/07 00:31:12;;;;;;;16.73;9.50;;;8.90;99.90;;;;;;5040535;28;20022;-74
2023/01/07 00:34:24;;;;;;;15.18;9.40;;;8.80;99.90;;;;;;5024739;28;20075;-75
2023/01/07 00:36:26;;;;;;;15.00;8.98;;;8.60;99.90;;;;;;5015496;28;20413;-74
2023/01/07 00:38:59;;;;;;;13.07;9.05;;;8.60;99.90;;;;;;5023168;28;20647;-74
2023/01/07 00:41:25;;;;;;;17.95;9.55;;;8.50;99.90;;;;;;5028822;28;20045;-74
2023/01/07 00:43:51;;;;;;;13.70;9.00;;;8.50;99.90;;;;;;5028370;28;20502;-74
2023/01/07 00:46:17;;;;;;;14.87;9.10;;;8.30;99.90;;;;;;5025138;28;20025;-74
2023/01/07 00:48:46;;;;;;;14.65;8.80;;;8.30;99.90;;;;;;5026817;28;20029;-74
2023/01/07 00:51:14;;;;;;;18.50;9.48;;;8.10;99.90;;;;;;5025820;28;20033;-74
2023/01/07 00:53:40;;;;;;;18.90;10.10;;;8.10;99.90;;;;;;5027476;28;20040;-74
2023/01/07 00:56:06;;;;;;;14.15;9.35;;;8.20;99.90;;;;;;5021312;28;20030;-74
2023/01/07 00:58:31;;;;;;;21.47;9.67;;;8.00;99.90;;;;;;5029418;28;20044;-74
2023/01/07 01:00:59;;;;;;;20.23;10.40;;;8.00;99.90;;;;;;5025743;28;20260;-74
2023/01/07 01:03:26;;;;;;;18.15;10.90;;;7.90;99.90;;;;;;5027336;28;20041;-74
2023/01/07 01:05:52;;;;;;;17.80;10.65;;;7.90;99.90;;;;;;5029716;28;20094;-73
2023/01/07 01:08:19;;;;;;;;;;;7.80;99.90;;;;;;5023275;28;20468;-74
2023/01/07 01:10:44;;;;;;;19.58;8.88;;;7.50;99.90;;;;;;5034388;28;19913;-75
2023/01/07 01:13:16;;;;;;;16.87;9.30;;;7.50;99.90;;;;;;5027918;28;20515;-74
2023/01/07 01:15:46;;;;;;;15.70;10.57;;;7.40;99.90;;;;;;5023639;28;20029;-74
2023/01/07 01:18:13;;;;;;;17.65;10.80;;;7.40;99.90;;;;;;5025218;28;20025;-74
2023/01/07 01:20:39;;;;;;;16.77;9.52;;;7.40;99.90;;;;;;5027425;28;20033;-74
2023/01/07 01:23:04;;;;;;;17.53;9.73;;;7.30;99.90;;;;;;5025114;28;20447;-74
2023/01/07 01:25:30;;;;;;;14.27;10.10;;;7.30;99.90;;;;;;5021301;28;20291;-73
2023/01/07 01:27:56;;;;;;;19.10;12.10;;;7.30;99.90;;;;;;5026348;28;20393;-74
2023/01/07 01:30:21;;;;;;;18.90;12.07;;;7.30;99.90;;;;;;5027466;28;20059;-75
2023/01/07 01:32:47;;;;;;;16.17;10.13;;;7.30;99.90;;;;;;5027934;28;20390;-74
2023/01/07 01:35:13;;;;;;;21.17;11.37;;;7.10;99.90;;;;;;5022708;28;20759;-72
2023/01/07 01:37:38;;;;;;;17.05;9.93;;;7.30;99.90;;;;;;5027113;28;20790;-74
2023/01/07 01:40:05;;;;;;;17.13;11.30;;;7.30;99.90;;;;;;5023235;28;20052;-73
2023/01/07 01:42:31;;;;;;;;;;;7.20;99.90;;;;;;5022617;28;20034;-73
2023/01/07 01:45:01;;;;;;;20.27;11.43;;;7.10;99.90;;;;;;5021546;28;19919;-73
2023/01/07 01:47:51;;;;;;;17.38;11.05;;;7.10;99.90;;;;;;5026144;28;20029;-73
2023/01/07 01:50:28;;;;;;;18.85;12.00;;;7.20;99.90;;;;;;5022767;28;20032;-74
2023/01/07 01:53:01;;;;;;;;;;;7.30;99.90;;;;;;5023651;28;20032;-74
2023/01/07 01:55:33;;;;;;;22.00;13.27;;;7.30;99.90;;;;;;5022870;28;19913;-74
2023/01/07 01:58:04;;;;;;;18.10;11.18;;;7.30;99.90;;;;;;5027418;28;20535;-74
2023/01/07 02:00:31;;;;;;;22.02;13.13;;;7.20;99.90;;;;;;5016738;28;20063;-75
2023/01/07 02:02:58;;;;;;;18.98;11.80;;;7.10;99.90;;;;;;5025653;28;20033;-74
2023/01/07 02:05:28;;;;;;;;;;;7.10;99.90;;;;;;5022645;28;20018;-74
2023/01/07 02:07:54;;;;;;;16.63;10.77;;;7.00;99.90;;;;;;5026494;28;19959;-73
2023/01/07 02:10:22;;;;;;;20.87;10.37;;;6.90;99.90;;;;;;5029538;28;20033;-74
2023/01/07 02:12:47;;;;;;;17.67;11.40;;;6.80;99.90;;;;;;5020184;28;20631;-75
2023/01/07 02:15:20;;;;;;;20.13;10.00;;;6.70;99.90;;;;;;5019265;28;20091;-75
2023/01/07 02:18:04;;;;;;;18.92;11.43;;;6.90;99.90;;;;;;5026807;28;20026;-76
2023/01/07 02:20:53;;;;;;;16.27;10.48;;;6.80;99.90;;;;;;5020715;28;20041;-74
2023/01/07 02:23:27;;;;;;;17.80;11.73;;;7.00;99.90;;;;;;5018656;28;20042;-75
2023/01/07 02:26:10;;;;;;;17.25;11.20;;;7.00;99.90;;;;;;5022983;28;20143;-74
2023/01/07 02:29:08;;;;;;;17.98;10.50;;;7.20;99.90;;;;;;5023488;28;20064;-74
2023/01/07 02:31:52;;;;;;;17.17;10.98;;;7.00;99.90;;;;;;4990773;28;20148;-75
2023/01/07 02:34:55;;;;;;;17.27;10.93;;;7.00;99.90;;;;;;5022103;28;20576;-73
2023/01/07 02:37:47;;;;;;;16.30;10.00;;;7.00;99.90;;;;;;5023948;28;20057;-74
2023/01/07 02:40:31;;;;;;;15.80;10.35;;;6.80;99.90;;;;;;5018468;28;20165;-73
2023/01/07 02:43:33;;;;;;;19.08;10.85;;;6.90;99.90;;;;;;5017016;28;20025;-72
2023/01/07 02:46:18;;;;;;;17.58;10.57;;;6.90;99.90;;;;;;5023984;28;20030;-75
2023/01/07 02:48:44;;;;;;;20.63;11.07;;;6.90;99.90;;;;;;5022979;28;20502;-74
2023/01/07 02:51:10;;;;;;;18.33;11.13;;;6.80;99.90;;;;;;5026344;28;20370;-75
2023/01/07 02:53:36;;;;;;;16.17;10.17;;;6.80;99.90;;;;;;5020316;28;20067;-74
2023/01/07 02:56:29;;;;;;;21.90;10.60;;;6.70;99.90;;;;;;5028205;28;20294;-75
2023/01/07 02:59:33;;;;;;;17.90;11.68;;;6.70;99.90;;;;;;5021326;28;20088;-75
2023/01/07 03:02:17;;;;;;;18.25;11.02;;;6.70;99.90;;;;;;5025418;28;20045;-75
2023/01/07 03:04:48;;;;;;;21.90;12.43;;;6.60;99.90;;;;;;5020060;28;20048;-75
2023/01/07 03:07:34;;;;;;;24.15;11.43;;;6.50;99.90;;;;;;5016476;28;20029;-75
2023/01/07 03:10:10;;;;;;;17.92;11.38;;;6.60;99.90;;;;;;5025140;28;20046;-75
2023/01/07 03:12:44;;;;;;;21.58;12.07;;;6.50;99.90;;;;;;5022352;28;20025;-75
2023/01/07 03:15:31;;;;;;;20.17;11.27;;;6.40;99.90;;;;;;5020915;28;20093;-75
2023/01/07 03:18:14;;;;;;;18.00;11.07;;;6.60;99.90;;;;;;5025052;28;20029;-75
2023/01/07 03:20:43;;;;;;;20.45;12.25;;;6.40;99.90;;;;;;5016797;28;20037;-75
2023/01/07 03:23:11;;;;;;;17.15;11.35;;;6.40;99.90;;;;;;5021199;28;20021;-74
2023/01/07 03:25:42;;;;;;;18.23;12.32;;;6.60;99.90;;;;;;5019676;28;20046;-75
2023/01/07 03:28:10;;;;;;;22.40;12.95;;;6.60;99.90;;;;;;5019485;28;20018;-74
2023/01/07 03:30:37;;;;;;;21.77;13.50;;;6.70;99.90;;;;;;5026216;28;20035;-74
2023/01/07 03:33:38;;;;;;;19.67;12.52;;;6.80;99.90;;;;;;5017592;28;20057;-74
2023/01/07 03:36:06;;;;;;;17.90;11.10;;;7.00;99.90;;;;;;5018935;28;20033;-74
2023/01/07 03:38:34;;;;;;;20.38;11.85;;;7.10;99.90;;;;;;5025782;28;20103;-74
2023/01/07 03:41:00;;;;;;;24.70;11.60;;;6.90;99.90;;;;;;5031510;28;20060;-74
2023/01/07 03:43:25;;;;;;;16.52;10.85;;;6.90;99.90;;;;;;5021757;28;20578;-75
2023/01/07 03:45:53;;;;;;;18.93;11.10;;;7.00;99.90;;;;;;5015989;28;20036;-74
2023/01/07 03:48:18;;;;;;;19.23;10.60;;;7.10;99.90;;;;;;5025958;28;20033;-74
2023/01/07 03:50:44;;;;;;;17.03;11.63;;;7.20;99.90;;;;;;5020424;28;20377;-74
2023/01/07 03:53:09;;;;;;;16.70;10.73;;;7.10;99.90;;;;;;5018104;28;20025;-74
2023/01/07 03:55:35;;;;;;;16.17;10.87;;;7.10;99.90;;;;;;5018176;28;20457;-74
2023/01/07 03:58:01;;;;;;;16.92;10.65;;;7.20;99.90;;;;;;5024159;28;20032;-74
2023/01/07 04:00:27;;;;;;;19.70;11.13;;;7.40;99.90;;;;;;5021712;28;20444;-74
2023/01/07 04:02:52;;;;;;;14.23;9.10;;;7.30;99.90;;;;;;5022555;28;20350;-74
2023/01/07 04:05:18;;;;;;;15.70;10.03;;;7.30;99.90;;;;;;5021064;28;20069;-75
2023/01/07 04:07:44;;;;;;;16.63;9.57;;;7.10;99.90;;;;;;5025593;28;20037;-76
2023/01/07 04:10:09;;;;;;;16.02;9.38;;;7.20;99.90;;;;;;5017172;28;20064;-74
2023/01/07 04:12:35;;;;;;;12.88;8.70;;;7.10;99.90;;;;;;5022571;28;20040;-74
2023/01/07 04:15:01;;;;;;;15.07;9.80;;;7.40;99.90;;;;;;5026213;28;20444;-75
2023/01/07 04:17:27;;;;;;;17.75;9.63;;;7.40;99.90;;;;;;5029976;28;20493;-74
2023/01/07 04:19:52;;;;;;;15.00;9.00;;;7.40;99.90;;;;;;5026957;28;20076;-74
2023/01/07 04:22:18;;;;;;;15.57;9.23;;;7.30;99.90;;;;;;5026176;28;20026;-75
2023/01/07 04:24:43;;;;;;;15.97;9.70;;;7.40;99.90;;;;;;5028462;28;20025;-74
2023/01/07 04:27:09;;;;;;;14.83;9.30;;;7.40;99.90;;;;;;5019237;28;20036;-74
2023/01/07 04:29:35;;;;;;;17.13;10.97;;;7.30;99.90;;;;;;5027501;28;20030;-75
2023/01/07 04:32:00;;;;;;;15.45;10.05;;;7.30;99.90;;;;;;5022585;28;20034;-75
2023/01/07 04:34:26;;;;;;;13.60;9.70;;;7.00;99.90;;;;;;5030181;28;20127;-75
2023/01/07 04:36:52;;;;;;;16.85;10.23;;;7.10;99.90;;;;;;5026068;28;20064;-75
2023/01/07 04:39:18;;;;;;;17.90;10.77;;;7.00;99.90;;;;;;5029070;28;20571;-73
2023/01/07 04:41:43;;;;;;;20.37;9.50;;;6.90;99.90;;;;;;5027764;28;20024;-75
2023/01/07 04:44:09;;;;;;;14.43;9.03;;;7.00;99.90;;;;;;5021258;28;20520;-74
2023/01/07 04:46:35;;;;;;;14.57;8.95;;;7.00;99.90;;;;;;5017865;28;20114;-74
2023/01/07 04:49:00;;;;;;;13.97;8.57;;;7.10;99.90;;;;;;5029132;28;20120;-74
2023/01/07 04:51:26;;;;;;;14.53;7.37;;;7.10;99.90;;;;;;5022281;28;20499;-74
2023/01/07 04:53:51;;;;;;;19.77;8.83;;;7.30;99.90;;;;;;5019779;28;20033;-73
2023/01/07 04:56:17;;;;;;;16.33;7.80;;;7.20;99.90;;;;;;5021889;28;20030;-74
2023/01/07 04:58:43;;;;;;;13.43;7.60;;;7.10;99.90;;;;;;5026885;28;20493;-74
2023/01/07 05:01:09;;;;;;;11.40;7.30;;;7.20;99.90;;;;;;5020627;28;20091;-75
2023/01/07 05:03:35;;;;;;;11.57;6.93;;;7.30;99.90;;;;;;5027743;28;20048;-74
2023/01/07 05:06:01;;;;;;;13.33;6.93;;;7.20;99.90;;;;;;5018809;28;20017;-75
2023/01/07 05:08:27;;;;;;;13.30;7.93;;;7.00;99.90;;;;;;5020739;28;20324;-74
2023/01/07 05:10:53;;;;;;;13.30;7.22;;;7.40;99.90;;;;;;5024524;28;20061;-75
2023/01/07 05:13:21;;;;;;;12.17;7.03;;;7.40;99.90;;;;;;5027989;28;20519;-75
2023/01/07 05:15:47;;;;;;;11.45;6.40;;;7.30;99.90;;;;;;5016727;28;20025;-75
2023/01/07 05:18:13;;;;;;;15.00;6.13;;;7.20;99.90;;;;;;5019139;28;20029;-74
2023/01/07 05:20:39;;;;;;;13.00;6.07;;;7.40;99.90;;;;;;5025748;28;20049;-75
2023/01/07 05:23:05;;;;;;;12.30;6.37;;;7.30;99.90;;;;;;5024300;28;20029;-73
2023/01/07 05:25:32;;;;;;;13.07;7.13;;;7.30;99.90;;;;;;5020682;28;20496;-75
2023/01/07 05:27:58;;;;;;;10.20;6.40;;;7.60;99.90;;;;;;5025675;28;20417;-74
2023/01/07 05:30:23;;;;;;;11.90;7.30;;;7.40;99.90;;;;;;5027395;28;20028;-74
2023/01/07 05:32:49;;;;;;;11.67;7.57;;;7.30;99.90;;;;;;5021525;28;20033;-74
2023/01/07 05:35:14;;;;;;;11.97;7.20;;;7.10;99.90;;;;;;5023605;28;20041;-75
2023/01/07 05:37:40;;;;;;;12.37;6.97;;;7.20;99.90;;;;;;5019205;28;20033;-75
2023/01/07 05:40:06;;;;;;;14.90;7.50;;;7.10;99.90;;;;;;5034381;28;20493;-74
2023/01/07 05:42:32;;;;;;;;;;;7.30;99.90;;;;;;5027112;28;20223;-74
2023/01/07 05:44:58;;;;;;;12.35;7.30;;;7.20;99.90;;;;;;5017056;28;20487;-74
2023/01/07 05:47:23;;;;;;;12.57;7.80;;;7.10;99.90;;;;;;5025888;28;20072;-74
2023/01/07 05:49:49;;;;;;;12.87;7.37;;;7.20;99.90;;;;;;5023136;28;20551;-72
2023/01/07 05:52:14;;;;;;;12.53;7.40;;;7.10;99.90;;;;;;5019662;28;20030;-74
2023/01/07 05:54:40;;;;;;;10.13;6.73;;;7.20;99.90;;;;;;5024271;28;20055;-75
2023/01/07 05:57:06;;;;;;;14.00;9.27;;;7.10;99.90;;;;;;5025790;28;20033;-74
2023/01/07 05:59:33;;;;;;;11.57;7.87;;;7.20;99.90;;;;;;5020583;28;20041;-74
2023/01/07 06:01:59;;;;;;;11.77;7.85;;;7.20;99.90;;;;;;5023047;28;20497;-75
2023/01/07 06:04:25;;;;;;;12.40;7.20;;;7.30;99.90;;;;;;5024832;28;20503;-75
2023/01/07 06:06:51;;;;;;;10.40;7.07;;;7.30;99.90;;;;;;5027409;28;20030;-75
2023/01/07 06:09:17;;;;;;;15.50;8.73;;;7.40;99.90;;;;;;5015951;28;20029;-74
2023/01/07 06:11:42;;;;;;;13.20;7.47;;;7.40;99.90;;;;;;5025310;28;20025;-74
2023/01/07 06:14:08;;;;;;;11.15;6.85;;;7.50;99.90;;;;;;5017815;28;20049;-74
2023/01/07 06:16:34;;;;;;;11.23;6.63;;;7.60;99.90;;;;;;5027892;28;20021;-73
2023/01/07 06:18:59;;;;;;;11.80;6.72;;;7.80;99.90;;;;;;5023876;28;20120;-73
2023/01/07 06:21:25;;;;;;;10.80;6.50;;;8.10;99.40;;;;;;5027691;28;20489;-72
2023/01/07 06:23:51;;;;;;;11.73;6.70;;;8.30;99.50;;;;;;5024999;28;20053;-74
2023/01/07 06:26:16;;;;;;;11.17;6.47;;;8.40;99.40;;;;;;5014076;28;20036;-74
2023/01/07 06:28:42;;;;;;;10.83;6.50;;;8.40;99.10;;;;;;5024061;28;20037;-75
2023/01/07 06:31:09;;;;;;;18.33;6.43;;;8.20;98.90;;;;;;5027176;28;20033;-74
2023/01/07 06:33:36;;;;;;;15.90;6.55;;;8.10;99.30;;;;;;5022978;28;20460;-74
2023/01/07 06:36:03;;;;;;;11.38;6.20;;;8.30;99.10;;;;;;5024181;28;20165;-74
2023/01/07 06:38:29;;;;;;;10.30;6.53;;;8.20;99.10;;;;;;5022847;28;20035;-74
2023/01/07 06:40:57;;;;;;;17.02;7.20;;;7.90;99.70;;;;;;5021787;28;20096;-74
2023/01/07 06:43:23;;;;;;;11.43;6.30;;;7.90;99.80;;;;;;5020678;28;20033;-74
2023/01/07 06:45:49;;;;;;;17.58;8.10;;;7.70;99.90;;;;;;5018897;28;20393;-74
2023/01/07 06:48:14;;;;;;;17.50;6.37;;;8.20;99.90;;;;;;5022095;28;20036;-74
2023/01/07 06:50:40;;;;;;;13.93;6.43;;;8.00;99.90;;;;;;5024099;28;20036;-74
2023/01/07 06:53:05;;;;;;;13.17;5.93;;;8.20;99.90;;;;;;5019583;28;20051;-74
2023/01/07 06:55:31;;;;;;;11.17;6.20;;;8.00;99.90;;;;;;5026311;28;20044;-73
2023/01/07 06:57:57;;;;;;;12.50;7.07;;;7.90;99.90;;;;;;5025076;28;20468;-74
2023/01/07 07:00:22;;;;;;;10.40;7.00;;;8.20;99.90;;;;;;5022562;28;20537;-74
2023/01/07 07:02:48;;;;;;;10.53;5.50;;;8.20;99.90;;;;;;5017972;28;20497;-74
2023/01/07 07:05:14;;;;;;;12.38;7.13;;;8.20;99.90;;;;;;5025182;28;20056;-74
2023/01/07 07:07:40;;;;;;;10.50;6.55;;;8.30;99.90;;;;;;5023016;28;20029;-73
2023/01/07 07:10:07;;;;;;;10.37;6.73;;;8.20;99.90;;;;;;5029283;28;20037;-73
2023/01/07 07:12:37;;;;;;;12.38;5.80;;;8.10;99.90;;;;;;5026825;28;20511;-72
2023/01/07 07:15:04;;;;;;;9.75;6.57;;;8.00;99.90;;;;;;5026307;28;20517;-73
2023/01/07 07:17:29;;;;;;;11.80;6.38;;;8.20;99.90;;;;;;5017933;28;20037;-73
2023/01/07 07:19:55;;;;;;;9.00;5.97;;;8.30;99.90;;;;;;5023200;28;20669;-71
2023/01/07 07:22:21;;;;;;;12.80;6.37;;;8.30;99.90;;;;;;5017514;28;20029;-71
2023/01/07 07:24:46;;;;;;;11.45;6.00;;;8.40;99.90;;;;;;5016974;28;20034;-71
2023/01/07 07:27:12;;;;;;;11.27;6.37;;;8.20;99.90;;;;;;5013282;28;20092;-71
2023/01/07 07:29:38;;;;;;;15.23;6.40;;;8.20;99.90;;;;;;5018833;28;20036;-71
2023/01/07 07:32:04;;;;;;;11.30;6.03;;;8.10;99.90;;;;;;5016289;28;20053;-71
2023/01/07 07:34:29;;;;;;;15.82;6.45;;;8.20;99.90;;;;;;5025491;28;20049;-71
2023/01/07 07:36:55;;;;;;;13.43;6.47;;;8.20;99.90;;;;;;5026571;28;20388;-71
2023/01/07 07:39:20;;;;;;;16.70;7.40;;;8.60;99.70;;;;;;5029191;28;20803;-72
2023/01/07 07:41:46;;;;;;;13.13;6.83;;;8.70;99.60;;;;;;5024700;28;20040;-71
2023/01/07 07:44:12;;;;;;;14.50;6.43;;;8.60;99.60;;;;;;5019829;28;20026;-72
2023/01/07 07:46:37;;;;;;;15.30;7.80;;;8.60;99.60;;;;;;5022944;28;20421;-72
2023/01/07 07:49:04;;;;;;;10.80;5.97;;;8.60;99.70;;;;;;5025797;28;20468;-73
2023/01/07 07:51:30;;;;;;;15.63;7.32;;;8.80;99.20;;;;;;5016728;28;20037;-72
2023/01/07 07:53:56;;;;;;;13.10;6.45;;;8.60;99.30;;;;;;5020301;28;20025;-73
2023/01/07 07:56:21;;;;;;;11.30;6.50;;;8.50;99.70;;;;;;5016539;28;20121;-72
2023/01/07 07:58:47;;;;;;;10.97;6.43;;;8.50;99.80;;;;;;5019728;28;20032;-71
2023/01/07 08:01:12;;;;;;;9.50;6.50;;;8.70;99.60;;;;;;5024540;28;20034;-71
2023/01/07 08:03:38;;;;;;;14.70;7.43;;;8.80;99.40;;;;;;5030772;28;20084;-72
2023/01/07 08:06:04;;;;;;;12.43;6.40;;;8.70;99.70;;;;;;5025886;28;20044;-72
2023/01/07 08:08:29;;;;;;;26.80;9.27;;;8.80;99.50;;;;;;5022827;28;20509;-73
2023/01/07 08:10:55;;;;;;;11.93;7.40;;;8.90;99.50;;;;;;5023365;28;20061;-72
2023/01/07 08:13:21;;;;;;;12.30;7.30;;;9.10;99.80;;;;;;5024734;28;20051;-72
2023/01/07 08:15:47;;;;;;;15.80;7.43;;;9.50;99.10;;;;;;5024603;28;20124;-71
2023/01/07 08:18:13;;;;;;;14.80;7.80;;;10.00;97.70;;;;;;5022373;28;20660;-72
2023/01/07 08:20:39;;;;;;;13.38;7.43;;;9.90;97.80;;;;;;5024017;28;20033;-64
2023/01/07 08:23:06;;;;;;;15.25;7.07;;;9.90;97.90;;;;;;5023386;28;20022;-66
2023/01/07 08:25:33;;;;;;;11.52;7.57;;;10.20;97.70;;;;;;5021359;28;20488;-70
2023/01/07 08:27:59;;;;;;;12.30;6.70;;;10.40;97.10;;;;;;5021947;28;20512;-70
2023/01/07 08:30:25;;;;;;;;;;;10.60;96.70;;;;;;5025661;28;20092;-68
2023/01/07 08:32:51;;;;;;;12.20;6.47;;;10.30;97.10;;;;;;5023554;28;19987;-67
2023/01/07 08:35:17;;;;;;;12.03;7.03;;;10.00;97.80;;;;;;5019162;28;20524;-67
2023/01/07 08:37:43;;;;;;;13.80;6.90;;;10.00;97.90;;;;;;5027113;28;20030;-69
2023/01/07 08:40:11;;;;;;;11.07;6.45;;;10.00;98.40;;;;;;5040390;28;20587;-68
2023/01/07 08:42:37;;;;;;;15.32;7.32;;;10.00;98.30;;;;;;5019349;28;20033;-67
2023/01/07 08:45:03;;;;;;;10.10;6.05;;;10.10;98.20;;;;;;5016396;28;20037;-68
2023/01/07 08:47:29;;;;;;;8.93;5.57;;;10.10;98.30;;;;;;5023873;28;20559;-68
2023/01/07 08:49:56;;;;;;;9.23;6.17;;;10.00;98.60;;;;;;5025778;28;20026;-67
2023/01/07 08:52:22;;;;;;;15.02;6.45;;;10.20;98.40;;;;;;5022865;28;20100;-68
2023/01/07 08:54:48;;;;;;;;;;;10.40;98.00;;;;;;5030615;28;20501;-67
2023/01/07 08:57:15;;;;;;;10.65;4.95;;;11.60;96.50;;;;;;5022324;28;19912;-68
2023/01/07 08:59:42;;;;;;;6.63;4.50;;;14.20;92.20;;;;;;5021538;28;20029;-68
2023/01/07 09:02:18;;;;;;;10.38;4.63;;;15.30;86.60;;;;;;5021362;28;20041;-67
2023/01/07 09:04:44;;;;;;;11.13;4.32;;;16.10;83.10;;;;;;5020609;28;20029;-67
2023/01/07 09:07:10;;;;;;;10.13;4.60;;;16.90;77.60;;;;;;5021395;28;20405;-69
2023/01/07 09:09:36;;;;;;;9.48;4.65;;;17.30;77.60;;;;;;5040137;28;20044;-68
2023/01/07 09:12:05;;;;;;;6.10;3.28;;;16.10;79.40;;;;;;5024798;28;20063;-68
2023/01/07 09:14:31;;;;;;;6.68;4.05;;;15.90;78.70;;;;;;5021698;28;20052;-68
2023/01/07 09:16:57;;;;;;;7.60;4.20;;;15.70;80.90;;;;;;5021925;28;20026;-67
2023/01/07 09:19:23;;;;;;;7.93;3.47;;;15.70;80.50;;;;;;5019432;28;20040;-69
2023/01/07 09:21:50;;;;;;;5.67;4.10;;;15.70;80.90;;;;;;5027128;28;20033;-67
2023/01/07 09:24:16;;;;;;;7.57;4.45;;;14.60;84.40;;;;;;5024400;28;20454;-66
2023/01/07 09:26:42;;;;;;;10.60;4.10;;;13.80;89.40;;;;;;5027866;28;20025;-68
2023/01/07 09:29:08;;;;;;;9.82;3.60;;;13.40;90.00;;;;;;5020097;28;20060;-66
2023/01/07 09:31:34;;;;;;;6.75;3.80;;;13.10;91.10;;;;;;5026205;28;20069;-68
2023/01/07 09:33:59;;;;;;;10.60;3.40;;;12.80;91.80;;;;;;5019185;28;20045;-68
2023/01/07 09:36:25;;;;;;;5.07;3.53;;;12.70;92.70;;;;;;5024710;28;20044;-67
2023/01/07 09:38:52;;;;;;;6.63;3.88;;;12.80;92.30;;;;;;5021484;28;20033;-67
2023/01/07 09:41:30;;;;;;;7.55;4.85;;;12.90;92.40;;;;;;5020602;28;20436;-67
2023/01/07 09:44:06;;;;;;;6.88;3.80;;;12.90;92.00;;;;;;5012172;28;20041;-67
2023/01/07 09:46:32;;;;;;;11.53;3.83;;;13.80;90.80;;;;;;5020601;28;20037;-67
2023/01/07 09:49:02;;;;;;;6.65;3.97;;;13.80;90.80;;;;;;5017430;28;20037;-67
2023/01/07 09:51:34;;;;;;;5.57;3.42;;;13.60;90.60;;;;;;5018265;28;20578;-67
2023/01/07 09:54:03;;;;;;;5.63;3.95;;;13.60;90.90;;;;;;5019143;28;20425;-67
2023/01/07 09:56:33;;;;;;;5.75;3.60;;;13.10;91.10;;;;;;5021608;28;20030;-67
2023/01/07 09:59:01;;;;;;;8.73;4.28;;;13.00;91.50;;;;;;5021399;28;20026;-67
2023/01/07 10:01:51;;;;;;;5.57;3.60;;;13.00;91.70;;;;;;5023629;28;20030;-67
2023/01/07 10:04:22;;;;;;;8.25;4.10;;;13.10;91.60;;;;;;5015303;28;20030;-67
2023/01/07 10:06:52;;;;;;;8.45;3.72;;;13.40;91.30;;;;;;5018895;28;20598;-66
2023/01/07 10:09:40;;;;;;;7.47;3.50;;;13.40;90.20;;;;;;5017659;28;20026;-67
2023/01/07 10:12:28;;;;;;;5.78;3.35;;;13.70;90.10;;;;;;5021474;28;20033;-67
2023/01/07 10:15:00;;;;;;;;;;;14.00;90.30;;;;;;5014943;28;20061;-68
2023/01/07 10:17:36;;;;;;;8.05;4.20;;;14.00;89.90;;;;;;5019176;28;20288;-68
2023/01/07 10:20:12;;;;;;;5.75;3.75;;;14.30;90.10;;;;;;5024926;28;20041;-68
2023/01/07 10:22:47;;;;;;;6.40;3.00;;;14.50;87.80;;;;;;5018315;28;20036;-67
2023/01/07 10:25:19;;;;;;;7.70;3.33;;;14.60;86.10;;;;;;5027041;28;20060;-67
2023/01/07 10:27:46;;;;;;;5.40;3.20;;;14.30;88.60;;;;;;5019429;28;20405;-67
2023/01/07 10:30:23;;;;;;;4.90;3.25;;;14.40;88.40;;;;;;5018459;28;20029;-67
2023/01/07 10:33:10;;;;;;;6.05;3.17;;;14.10;87.60;;;;;;5022200;28;20156;-68
2023/01/07 10:35:39;;;;;;;8.35;3.45;;;13.80;87.90;;;;;;5021962;28;20131;-67
2023/01/07 10:38:04;;;;;;;6.32;3.55;;;13.80;89.80;;;;;;5018604;28;20033;-67
2023/01/07 10:40:41;;;;;;;12.15;3.22;;;13.90;89.00;;;;;;5024585;28;20041;-67
2023/01/07 10:43:44;;;;;;;5.00;2.97;;;13.90;89.60;;;;;;5021019;28;20026;-66
2023/01/07 10:46:37;;;;;;;8.82;3.22;;;13.80;88.50;;;;;;5023982;28;20034;-69
2023/01/07 10:49:29;;;;;;;5.45;2.63;;;13.50;90.10;;;;;;5023707;28;20033;-66
2023/01/07 10:52:11;;;;;;;7.50;3.03;;;13.60;90.40;;;;;;5022075;28;20037;-68
2023/01/07 10:55:05;;;;;;;5.07;3.13;;;13.60;88.40;;;;;;5021357;28;20032;-67
2023/01/07 11:08:18;;;;;;;4.72;2.45;;;13.60;88.00;;;;;;5087447;27;20389;-68
2023/01/07 11:10:43;;;;;;;7.15;2.83;;;14.10;87.70;;;;;;5085227;28;20043;-67
2023/01/07 11:13:22;;;;;;;8.13;3.20;;;13.70;87.00;;;;;;5088221;28;20032;-67
2023/01/07 11:16:16;;;;;;;6.18;2.63;;;13.60;87.80;;;;;;5084531;28;20103;-66
2023/01/07 11:18:59;;;;;;;4.70;2.90;;;13.80;86.40;;;;;;5075425;28;20044;-66
2023/01/07 11:21:46;;;;;;;5.25;3.13;;;13.90;86.10;;;;;;5080669;28;20009;-66
2023/01/07 11:24:17;;;;;;;3.88;2.92;;;13.70;85.80;;;;;;5084854;28;20036;-65
2023/01/07 11:26:44;;;;;;;5.43;2.83;;;13.60;86.60;;;;;;5103170;28;20028;-66
2023/01/07 11:29:15;;;;;;;;;;;13.60;86.60;;;;;;5098428;28;20140;-67
2023/01/07 11:31:49;;;;;;;5.68;2.65;;;13.40;87.80;;;;;;5095747;28;20331;-67
2023/01/07 11:34:35;;;;;;;4.03;2.60;;;13.40;87.10;;;;;;5094256;28;20021;-67
2023/01/07 11:37:01;;;;;;;5.75;2.75;;;13.40;86.60;;;;;;5093635;28;20035;-66
2023/01/07 11:39:28;;;;;;;;;;;13.50;88.50;;;;;;5096282;28;20073;-65
2023/01/07 11:41:57;;;;;;;5.70;3.00;;;13.60;87.40;;;;;;5097852;28;20365;-68
2023/01/07 11:44:24;;;;;;;2.85;2.30;;;13.60;86.90;;;;;;5099334;28;20012;-67
2023/01/07 11:46:51;;;;;;;4.00;2.50;;;13.50;86.80;;;;;;5089268;28;20550;-66
2023/01/07 11:49:23;;;;;;;6.22;2.50;;;13.60;85.40;;;;;;5085891;28;20480;-67
2023/01/07 11:51:49;;;;;;;7.57;3.17;;;13.80;85.40;;;;;;5086522;28;20032;-68
2023/01/07 11:54:27;;;;;;;5.70;2.60;;;13.60;88.20;;;;;;5087282;28;20028;-69
2023/01/07 11:57:09;;;;;;;10.15;2.60;;;13.50;87.20;;;;;;5078865;28;20111;-68
2023/01/07 11:59:34;;;;;;;6.60;2.70;;;13.50;86.80;;;;;;5087876;28;20032;-67
2023/01/07 12:02:00;;;;;;;4.87;2.20;;;13.60;85.20;;;;;;5085341;28;20031;-66
2023/01/07 12:04:34;;;;;;;4.33;2.47;;;13.60;85.60;;;;;;5080743;28;20099;-68
2023/01/07 12:07:05;;;;;;;2.53;1.92;;;13.60;85.60;;;;;;5083978;28;20042;-69
2023/01/07 12:09:31;;;;;;;3.22;2.35;;;13.50;85.50;;;;;;5083449;28;20086;-67
2023/01/07 12:12:38;;;;;;;4.47;2.47;;;13.50;86.70;;;;;;5084988;28;20586;-68
2023/01/07 12:15:26;;;;;;;4.65;2.35;;;13.60;84.10;;;;;;5085385;28;20125;-68
2023/01/07 12:18:06;;;;;;;4.10;2.25;;;13.80;82.40;;;;;;5086488;28;20013;-68
2023/01/07 12:20:47;;;;;;;4.22;2.33;;;13.90;82.80;;;;;;5066149;28;20028;-68
2023/01/07 12:23:18;;;;;;;3.40;2.08;;;14.00;83.40;;;;;;5066925;28;20093;-68
2023/01/07 12:26:05;;;;;;;6.20;2.60;;;14.00;79.50;;;;;;5073970;28;20459;-68
2023/01/07 12:28:33;;;;;;;3.47;2.67;;;14.00;81.80;;;;;;5070087;28;20086;-68
2023/01/07 12:31:11;;;;;;;2.92;2.25;;;13.90;79.00;;;;;;5070174;28;20383;-67
2023/01/07 12:34:14;;;;;;;10.23;2.40;;;13.80;82.50;;;;;;5071966;28;20040;-68
2023/01/07 12:37:26;;;;;;;4.57;2.25;;;13.90;80.40;;;;;;5070120;28;20039;-67
2023/01/07 12:40:01;;;;;;;4.82;2.28;;;14.10;81.40;;;;;;5065178;28;20391;-68
2023/01/07 12:42:30;;;;;;;4.03;2.22;;;14.00;78.10;;;;;;5076156;28;20044;-69
2023/01/07 12:45:02;;;;;;;4.07;2.22;;;14.00;80.70;;;;;;5070730;28;20546;-68
2023/01/07 12:47:45;;;;;;;8.32;2.25;;;14.20;80.50;;;;;;5074662;28;20067;-69
2023/01/07 12:50:43;;;;;;;4.45;2.45;;;14.20;80.80;;;;;;5070169;28;20107;-69
2023/01/07 12:53:15;;;;;;;5.82;2.17;;;14.20;79.90;;;;;;5045054;28;20052;-68
2023/01/07 12:55:48;;;;;;;4.05;2.78;;;14.10;80.20;;;;;;5066981;28;20194;-68
2023/01/07 12:58:39;;;;;;;3.33;2.17;;;14.10;81.20;;;;;;5065404;28;20024;-69
2023/01/07 13:01:28;;;;;;;5.57;2.35;;;14.10;79.90;;;;;;5068360;28;20040;-67
2023/01/07 13:04:00;;;;;;;3.03;2.30;;;14.00;82.20;;;;;;5052631;28;20141;-68
2023/01/07 13:06:32;;;;;;;4.28;2.20;;;14.00;80.90;;;;;;5067596;28;20131;-69
2023/01/07 13:09:22;;;;;;;5.35;2.17;;;13.90;80.20;;;;;;5066642;28;20792;-68
2023/01/07 13:14:44;;;;;;;5.30;2.20;;;13.80;81.50;;;;;;5066542;28;20534;-68
2023/01/07 13:17:27;;;;;;;4.35;2.20;;;13.70;81.30;;;;;;5073392;28;20036;-67